createdAt,value
2022-09-23T00:19:15.738Z,4.16
2022-09-23T00:39:08.629Z,4.08
2022-09-23T00:59:08.713Z,3.83
2022-09-23T01:19:08.672Z,3.67
2022-09-23T01:39:08.603Z,3.36
2022-09-23T01:59:08.481Z,3.35
2022-09-23T02:19:08.447Z,3.19
2022-09-23T02:59:08.571Z,2.72
2022-09-23T03:19:08.406Z,2.66
2022-09-23T03:39:08.452Z,2.49
2022-09-23T03:59:08.373Z,2.48
2022-09-23T04:19:11.381Z,2.49
2022-09-23T04:39:08.349Z,2.22
2022-09-23T04:59:15.245Z,2.29
2022-09-23T05:19:08.404Z,2.5
2022-09-23T05:39:08.707Z,5.79
2022-09-23T05:59:08.155Z,8.45
2022-09-23T06:19:08.100Z,11.62
2022-09-23T06:39:08.056Z,11.73
2022-09-23T06:59:08.031Z,11.19
2022-09-23T07:19:08.079Z,12.95
2022-09-23T07:39:14.980Z,15.5
2022-09-23T07:59:07.974Z,17.6
2022-09-23T08:39:07.778Z,16.88
2022-09-23T09:19:07.828Z,17.74
2022-09-23T10:19:07.523Z,20.37
2022-09-23T10:39:07.594Z,19.84
2022-09-23T10:59:07.473Z,19.32
2022-09-23T11:19:07.397Z,18.02
2022-09-23T12:19:07.234Z,18.87
2022-09-23T12:59:07.211Z,18.96
2022-09-23T13:19:07.109Z,18.59
2022-09-23T13:59:07.016Z,19.3
2022-09-23T14:19:06.998Z,18.88
2022-09-23T14:39:06.895Z,18.53
2022-09-23T14:59:06.987Z,17.84
2022-09-23T15:39:06.802Z,16.84
2022-09-23T15:59:06.714Z,16.4
2022-09-23T16:19:07.013Z,15.73
2022-09-23T16:39:06.716Z,15.15
2022-09-23T17:19:06.643Z,13.32
2022-09-23T17:39:13.532Z,12.51
2022-09-23T17:59:06.691Z,12.04
2022-09-23T18:19:06.504Z,11.39
2022-09-23T18:39:06.467Z,11.07
2022-09-23T18:59:06.345Z,10.8
2022-09-23T19:19:06.280Z,10.31
2022-09-23T19:39:06.270Z,9.81
2022-09-23T19:59:06.211Z,9.32
2022-09-23T20:19:06.212Z,9.36
2022-09-23T20:39:06.218Z,9.36
2022-09-23T20:59:06.107Z,9.55
2022-09-23T21:19:13.093Z,9.4
2022-09-23T21:39:06.309Z,9.49
2022-09-23T21:59:05.956Z,9.77
2022-09-23T22:19:12.922Z,9.79
2022-09-23T22:39:05.939Z,9.82
2022-09-23T23:19:05.843Z,9.78
2022-09-23T23:39:05.823Z,9.63
2022-09-23T23:59:05.744Z,9.41
